createdAt,value
2022-10-24T00:01:02.489Z,66.70
2022-10-24T00:06:06.605Z,66.60
2022-10-24T00:11:11.232Z,66.50
2022-10-24T00:16:14.563Z,66.90
2022-10-24T00:21:17.161Z,66.50
2022-10-24T00:26:21.159Z,66.10
2022-10-24T00:31:23.737Z,66.20
2022-10-24T00:36:27.030Z,66.00
2022-10-24T00:41:33.354Z,66.10
2022-10-24T00:46:36.008Z,66.30
2022-10-24T00:51:38.896Z,66.70
2022-10-24T00:56:45.550Z,66.70
2022-10-24T01:01:48.402Z,66.60
2022-10-24T01:06:58.383Z,66.50
2022-10-24T01:12:09.057Z,66.40
2022-10-24T01:17:15.379Z,66.80
2022-10-24T01:22:20.259Z,66.70
2022-10-24T01:27:40.127Z,66.80
2022-10-24T01:32:46.353Z,66.80
2022-10-24T01:37:52.352Z,66.80
2022-10-24T01:42:56.538Z,66.60
2022-10-24T01:48:02.842Z,66.80
2022-10-24T01:53:05.958Z,66.80
2022-10-24T01:58:08.787Z,66.60
2022-10-24T02:03:18.153Z,66.50
2022-10-24T02:08:23.034Z,66.60
2022-10-24T02:13:28.430Z,66.60
2022-10-24T02:18:33.537Z,66.70
2022-10-24T02:23:39.108Z,66.70
2022-10-24T02:28:43.167Z,66.80
2022-10-24T02:33:47.437Z,66.50
2022-10-24T02:38:51.669Z,66.90
2022-10-24T02:43:55.342Z,66.70
2022-10-24T02:49:00.107Z,66.60
2022-10-24T02:54:03.086Z,66.80
2022-10-24T02:59:06.135Z,66.70
2022-10-24T03:04:10.180Z,66.60
2022-10-24T03:09:12.772Z,66.60
2022-10-24T03:14:15.362Z,66.50
2022-10-24T03:19:19.313Z,66.60
2022-10-24T03:24:31.157Z,66.60
2022-10-24T03:29:44.488Z,66.60
2022-10-24T03:34:48.449Z,66.60
2022-10-24T03:39:51.037Z,66.80
2022-10-24T03:44:53.613Z,66.50
2022-10-24T03:49:57.610Z,66.80
2022-10-24T03:55:00.485Z,66.80
2022-10-24T04:00:03.097Z,66.80
2022-10-24T04:05:07.778Z,66.70
2022-10-24T04:10:10.557Z,66.70
2022-10-24T04:15:13.191Z,66.60
2022-10-24T04:20:20.708Z,66.70
2022-10-24T04:25:23.373Z,66.40
2022-10-24T04:30:28.874Z,66.20
2022-10-24T04:35:32.857Z,66.30
2022-10-24T04:40:35.525Z,66.10
2022-10-24T04:45:38.110Z,66.30
2022-10-24T04:50:43.061Z,66.40
2022-10-24T04:55:45.813Z,66.30
2022-10-24T05:00:50.115Z,66.30
2022-10-24T05:05:54.075Z,66.20
2022-10-24T05:10:56.650Z,66.40
2022-10-24T05:15:59.590Z,66.30
2022-10-24T05:21:03.613Z,66.30
2022-10-24T05:26:06.231Z,66.40
2022-10-24T05:31:08.867Z,66.50
2022-10-24T05:36:12.871Z,66.80
2022-10-24T05:41:15.463Z,66.70
2022-10-24T05:46:18.041Z,66.50
2022-10-24T05:51:22.569Z,67.00
2022-10-24T05:56:25.178Z,66.80
2022-10-24T06:01:27.869Z,66.70
2022-10-24T06:06:34.567Z,66.70
2022-10-24T06:11:37.158Z,66.50
2022-10-24T06:16:39.964Z,66.80
2022-10-24T06:21:43.929Z,66.80
2022-10-24T06:26:46.514Z,66.70
2022-10-24T06:31:49.225Z,66.60
2022-10-24T06:36:53.250Z,67.00
2022-10-24T06:41:55.862Z,66.90
2022-10-24T06:46:58.444Z,68.90
2022-10-24T06:52:02.511Z,69.60
2022-10-24T06:57:05.218Z,70.10
2022-10-24T07:02:07.893Z,70.70
2022-10-24T07:07:16.045Z,71.20
2022-10-24T07:17:26.218Z,70.80
2022-10-24T07:22:32.587Z,70.80
2022-10-24T07:27:35.514Z,71.00
2022-10-24T07:32:38.130Z,70.40
2022-10-24T07:37:42.220Z,70.40
2022-10-24T07:42:44.994Z,71.10
2022-10-24T07:47:48.389Z,70.40
2022-10-24T07:52:52.560Z,70.40
2022-10-24T07:57:55.194Z,70.50
2022-10-24T08:02:58.497Z,70.70
2022-10-24T08:08:30.734Z,71.10
2022-10-24T08:13:28.006Z,71.40
2022-10-24T08:18:31.081Z,71.60
2022-10-24T08:23:37.396Z,71.30
2022-10-24T08:28:40.052Z,71.10
2022-10-24T08:33:42.820Z,71.30
2022-10-24T08:38:46.814Z,71.40
2022-10-24T08:43:49.849Z,71.80
2022-10-24T08:48:54.868Z,71.70
2022-10-24T08:53:59.828Z,71.40
2022-10-24T08:59:02.986Z,70.80
2022-10-24T09:04:07.559Z,69.70
2022-10-24T09:09:16.492Z,69.50
2022-10-24T09:14:20.079Z,69.20
2022-10-24T09:19:23.714Z,69.30
2022-10-24T09:24:33.260Z,69.70
2022-10-24T09:29:36.324Z,70.50
2022-10-24T09:34:38.963Z,69.80
2022-10-24T09:39:44.402Z,70.10
2022-10-24T09:44:47.486Z,69.60
2022-10-24T09:49:50.522Z,70.10
2022-10-24T09:55:06.626Z,72.20
2022-10-24T10:00:20.675Z,72.40
2022-10-24T10:05:23.372Z,72.20
2022-10-24T10:10:32.637Z,72.10
2022-10-24T10:15:37.505Z,70.20
2022-10-24T10:20:41.230Z,70.40
2022-10-24T10:25:45.269Z,71.60
2022-10-24T10:30:49.403Z,71.40
2022-10-24T10:35:54.580Z,71.40
2022-10-24T10:40:59.877Z,71.50
2022-10-24T10:46:11.966Z,71.50
2022-10-24T10:51:18.285Z,71.40
2022-10-24T10:56:29.759Z,71.50
2022-10-24T11:01:45.112Z,71.30
2022-10-24T11:06:52.146Z,71.40
2022-10-24T11:11:59.886Z,71.60
2022-10-24T11:17:05.488Z,71.80
2022-10-24T11:22:10.673Z,71.60
2022-10-24T11:27:21.453Z,71.90
2022-10-24T11:32:27.764Z,71.90
2022-10-24T11:37:32.957Z,73.80
2022-10-24T11:42:42.354Z,74.90
2022-10-24T11:47:52.639Z,75.10
2022-10-24T11:52:56.884Z,75.00
2022-10-24T11:58:01.176Z,75.40
2022-10-24T12:03:21.582Z,75.00
2022-10-24T12:08:42.102Z,75.00
2022-10-24T12:13:51.284Z,74.30
2022-10-24T12:18:59.323Z,74.70
2022-10-24T12:24:02.484Z,74.10
2022-10-24T12:29:07.229Z,74.50
2022-10-24T12:34:27.948Z,74.50
2022-10-24T12:39:30.998Z,74.10
2022-10-24T12:44:39.222Z,74.30
2022-10-24T12:49:41.972Z,74.40
2022-10-24T12:54:45.325Z,74.20
2022-10-24T12:59:50.458Z,74.00
2022-10-24T13:04:58.575Z,73.70
2022-10-24T13:10:10.001Z,73.40
2022-10-24T13:15:23.417Z,73.10
2022-10-24T13:20:27.117Z,73.30
2022-10-24T13:25:34.246Z,73.00
2022-10-24T13:30:38.467Z,72.70
2022-10-24T13:35:41.212Z,71.40
2022-10-24T13:40:45.317Z,72.80
2022-10-24T13:45:58.537Z,73.00
2022-10-24T13:51:04.689Z,72.70
2022-10-24T13:56:10.527Z,73.00
2022-10-24T14:01:18.488Z,72.40
2022-10-24T14:06:25.470Z,72.20
2022-10-24T14:11:28.509Z,72.20
2022-10-24T14:16:33.522Z,72.50
2022-10-24T14:21:40.632Z,72.40
2022-10-24T14:26:45.377Z,72.20
2022-10-24T14:31:55.029Z,72.40
2022-10-24T14:37:00.351Z,70.80
2022-10-24T14:42:04.754Z,72.30
2022-10-24T14:47:20.244Z,70.80
2022-10-24T14:52:27.738Z,71.20
2022-10-24T14:57:31.574Z,72.30
2022-10-24T15:02:38.964Z,71.00
2022-10-24T15:07:57.104Z,72.30
2022-10-24T15:13:11.488Z,72.40
2022-10-24T15:18:18.596Z,72.60
2022-10-24T15:23:23.283Z,72.30
2022-10-24T15:28:36.192Z,72.20
2022-10-24T15:38:48.817Z,73.10
2022-10-24T15:43:51.427Z,72.90
2022-10-24T15:48:55.435Z,73.00
2022-10-24T15:53:58.077Z,73.20
2022-10-24T15:59:00.662Z,73.50
2022-10-24T16:04:04.742Z,73.30
2022-10-24T16:09:07.879Z,73.40
2022-10-24T16:14:12.999Z,73.30
2022-10-24T16:19:17.062Z,72.60
2022-10-24T16:24:19.917Z,72.40
2022-10-24T16:29:22.536Z,72.40
2022-10-24T16:34:26.543Z,72.40
2022-10-24T16:39:29.173Z,72.40
2022-10-24T16:44:33.901Z,72.60
2022-10-24T16:49:37.826Z,72.30
2022-10-24T16:54:41.015Z,72.40
2022-10-24T16:59:43.589Z,72.40
2022-10-24T17:04:47.573Z,72.30
2022-10-24T17:09:50.258Z,72.70
2022-10-24T17:14:52.856Z,72.70
2022-10-24T17:19:56.841Z,72.70
2022-10-24T17:24:59.661Z,72.70
2022-10-24T17:30:02.411Z,72.60
2022-10-24T17:35:07.086Z,72.80
2022-10-24T17:40:14.721Z,72.30
2022-10-24T17:45:18.410Z,72.60
2022-10-24T17:50:22.379Z,72.70
2022-10-24T17:55:46.220Z,72.40
2022-10-24T18:00:48.642Z,72.60
2022-10-24T18:05:53.862Z,72.60
2022-10-24T18:11:00.693Z,72.70
2022-10-24T18:16:06.747Z,72.40
2022-10-24T18:21:11.409Z,72.70
2022-10-24T18:26:14.922Z,72.70
2022-10-24T18:31:18.853Z,72.40
2022-10-24T18:36:24.324Z,72.40
2022-10-24T18:41:33.623Z,72.60
2022-10-24T18:46:36.506Z,72.30
2022-10-24T18:51:42.293Z,72.30
2022-10-24T18:56:46.542Z,72.50
2022-10-24T19:01:55.326Z,72.50
2022-10-24T19:07:01.405Z,72.40
2022-10-24T19:12:04.201Z,72.10
2022-10-24T19:17:07.248Z,72.40
2022-10-24T19:22:11.270Z,72.60
2022-10-24T19:27:13.877Z,72.40
2022-10-24T19:32:16.998Z,72.30
2022-10-24T19:37:20.934Z,72.20
2022-10-24T19:42:23.548Z,72.20
2022-10-24T19:47:26.185Z,72.40
2022-10-24T19:52:30.110Z,72.00
2022-10-24T19:57:32.933Z,71.80
2022-10-24T20:02:35.502Z,71.90
2022-10-24T20:07:39.411Z,72.10
2022-10-24T20:12:42.128Z,72.20
2022-10-24T20:17:44.693Z,72.00
2022-10-24T20:22:49.279Z,72.00
2022-10-24T20:27:51.997Z,72.20
2022-10-24T20:32:54.802Z,72.00
2022-10-24T20:37:58.716Z,71.70
2022-10-24T20:43:04.479Z,71.60
2022-10-24T20:48:08.224Z,71.80
2022-10-24T20:53:12.244Z,71.80
2022-10-24T20:58:14.826Z,71.80
2022-10-24T21:03:17.402Z,71.90
2022-10-24T21:08:21.401Z,71.80
2022-10-24T21:13:24.018Z,71.80
2022-10-24T21:18:26.585Z,72.00
2022-10-24T21:23:30.510Z,71.50
2022-10-24T21:28:33.129Z,71.60
2022-10-24T21:33:36.206Z,71.80
2022-10-24T21:38:40.369Z,71.40
2022-10-24T21:43:43.170Z,71.80
2022-10-24T21:48:46.154Z,71.50
2022-10-24T21:53:50.690Z,71.60
2022-10-24T21:58:54.357Z,71.70
2022-10-24T22:03:57.550Z,71.60
2022-10-24T22:09:01.706Z,71.80
2022-10-24T22:14:04.717Z,71.70
2022-10-24T22:19:07.336Z,71.40
2022-10-24T22:24:11.914Z,71.30
2022-10-24T22:29:15.298Z,71.30
2022-10-24T22:34:19.378Z,71.40
2022-10-24T22:39:24.742Z,71.60
2022-10-24T22:44:27.745Z,71.60
2022-10-24T22:49:34.376Z,71.60
2022-10-24T22:54:39.591Z,71.50
2022-10-24T22:59:42.418Z,71.40
2022-10-24T23:04:48.147Z,71.30
2022-10-24T23:09:52.120Z,71.40
2022-10-24T23:14:55.010Z,71.20
2022-10-24T23:19:58.174Z,71.50
2022-10-24T23:25:02.626Z,71.20
2022-10-24T23:30:06.703Z,71.40
2022-10-24T23:35:10.079Z,71.30
2022-10-24T23:40:19.116Z,71.40
2022-10-24T23:45:22.498Z,71.10
2022-10-24T23:50:28.518Z,71.20
2022-10-24T23:55:32.761Z,71.30
